sensor_id;sensor_type;location;lat;lon;timestamp;temperature;humidity
44117;DHT22;29781;49.480;8.512;2024-01-07T00:02:24;5.10;99.90
44117;DHT22;29781;49.480;8.512;2024-01-07T00:04:50;5.10;99.90
44117;DHT22;29781;49.480;8.512;2024-01-07T00:07:15;5.20;99.90
44117;DHT22;29781;49.480;8.512;2024-01-07T00:09:41;5.30;99.90
44117;DHT22;29781;49.480;8.512;2024-01-07T00:12:06;5.10;99.90
44117;DHT22;29781;49.480;8.512;2024-01-07T00:14:32;5.10;99.90
44117;DHT22;29781;49.480;8.512;2024-01-07T00:16:58;5.00;99.90
44117;DHT22;29781;49.480;8.512;2024-01-07T00:19:23;5.00;99.90
44117;DHT22;29781;49.480;8.512;2024-01-07T00:21:49;5.10;99.90
44117;DHT22;29781;49.480;8.512;2024-01-07T00:24:15;4.90;99.90
44117;DHT22;29781;49.480;8.512;2024-01-07T00:26:41;4.80;99.90
44117;DHT22;29781;49.480;8.512;2024-01-07T00:29:06;4.90;99.90
44117;DHT22;29781;49.480;8.512;2024-01-07T00:31:32;4.90;99.90
44117;DHT22;29781;49.480;8.512;2024-01-07T00:33:57;4.90;99.90
44117;DHT22;29781;49.480;8.512;2024-01-07T00:36:23;4.90;99.90
44117;DHT22;29781;49.480;8.512;2024-01-07T00:38:48;4.90;99.90
44117;DHT22;29781;49.480;8.512;2024-01-07T00:41:14;4.90;99.90
44117;DHT22;29781;49.480;8.512;2024-01-07T00:43:39;5.00;99.90
44117;DHT22;29781;49.480;8.512;2024-01-07T00:46:06;5.00;99.90
44117;DHT22;29781;49.480;8.512;2024-01-07T00:48:31;5.10;99.90
44117;DHT22;29781;49.480;8.512;2024-01-07T00:50:57;4.90;99.90
44117;DHT22;29781;49.480;8.512;2024-01-07T00:53:22;4.70;99.90
44117;DHT22;29781;49.480;8.512;2024-01-07T00:55:48;4.90;99.90
44117;DHT22;29781;49.480;8.512;2024-01-07T00:58:13;4.80;99.90
44117;DHT22;29781;49.480;8.512;2024-01-07T01:00:39;4.80;99.90
44117;DHT22;29781;49.480;8.512;2024-01-07T01:03:04;4.70;99.90
44117;DHT22;29781;49.480;8.512;2024-01-07T01:05:30;4.90;99.90
44117;DHT22;29781;49.480;8.512;2024-01-07T01:07:55;5.10;99.90
44117;DHT22;29781;49.480;8.512;2024-01-07T01:10:21;5.40;99.90
44117;DHT22;29781;49.480;8.512;2024-01-07T01:12:47;5.30;99.90
44117;DHT22;29781;49.480;8.512;2024-01-07T01:15:12;5.30;99.90
44117;DHT22;29781;49.480;8.512;2024-01-07T01:17:38;5.30;99.90
44117;DHT22;29781;49.480;8.512;2024-01-07T01:20:04;5.10;99.90
44117;DHT22;29781;49.480;8.512;2024-01-07T01:22:30;5.00;99.90
44117;DHT22;29781;49.480;8.512;2024-01-07T01:24:55;4.90;99.90
44117;DHT22;29781;49.480;8.512;2024-01-07T01:27:21;5.10;99.90
44117;DHT22;29781;49.480;8.512;2024-01-07T01:29:47;5.10;99.90
44117;DHT22;29781;49.480;8.512;2024-01-07T01:32:12;5.20;99.90
44117;DHT22;29781;49.480;8.512;2024-01-07T01:34:40;5.30;99.90
44117;DHT22;29781;49.480;8.512;2024-01-07T01:37:05;5.40;99.90
44117;DHT22;29781;49.480;8.512;2024-01-07T01:39:31;5.40;99.90
44117;DHT22;29781;49.480;8.512;2024-01-07T01:41:56;5.50;99.90
44117;DHT22;29781;49.480;8.512;2024-01-07T01:44:23;5.40;99.90
44117;DHT22;29781;49.480;8.512;2024-01-07T01:46:49;5.40;99.90
44117;DHT22;29781;49.480;8.512;2024-01-07T01:49:15;5.50;99.90
44117;DHT22;29781;49.480;8.512;2024-01-07T01:51:41;5.30;99.90
44117;DHT22;29781;49.480;8.512;2024-01-07T01:54:07;5.20;99.90
44117;DHT22;29781;49.480;8.512;2024-01-07T01:56:33;5.30;99.90
44117;DHT22;29781;49.480;8.512;2024-01-07T01:58:59;5.30;99.90
44117;DHT22;29781;49.480;8.512;2024-01-07T02:01:25;5.40;99.90
44117;DHT22;29781;49.480;8.512;2024-01-07T02:03:50;5.50;99.90
44117;DHT22;29781;49.480;8.512;2024-01-07T02:06:18;5.20;99.90
44117;DHT22;29781;49.480;8.512;2024-01-07T02:08:43;5.20;99.90
44117;DHT22;29781;49.480;8.512;2024-01-07T02:11:19;5.20;99.90
44117;DHT22;29781;49.480;8.512;2024-01-07T02:13:45;5.20;99.90
44117;DHT22;29781;49.480;8.512;2024-01-07T02:16:11;5.20;99.90
44117;DHT22;29781;49.480;8.512;2024-01-07T02:18:39;5.00;99.90
44117;DHT22;29781;49.480;8.512;2024-01-07T02:21:07;5.00;99.90
44117;DHT22;29781;49.480;8.512;2024-01-07T02:23:32;5.00;99.90
44117;DHT22;29781;49.480;8.512;2024-01-07T02:25:58;5.20;99.90
44117;DHT22;29781;49.480;8.512;2024-01-07T02:28:23;5.20;99.90
44117;DHT22;29781;49.480;8.512;2024-01-07T02:30:49;5.30;99.90
44117;DHT22;29781;49.480;8.512;2024-01-07T02:33:14;5.20;99.90
44117;DHT22;29781;49.480;8.512;2024-01-07T02:35:39;5.00;99.90
44117;DHT22;29781;49.480;8.512;2024-01-07T02:38:05;4.90;99.90
44117;DHT22;29781;49.480;8.512;2024-01-07T02:40:30;4.90;99.90
44117;DHT22;29781;49.480;8.512;2024-01-07T02:42:56;4.90;99.90
44117;DHT22;29781;49.480;8.512;2024-01-07T02:45:22;4.90;99.90
44117;DHT22;29781;49.480;8.512;2024-01-07T02:47:48;5.00;99.90
44117;DHT22;29781;49.480;8.512;2024-01-07T02:50:13;5.00;99.90
44117;DHT22;29781;49.480;8.512;2024-01-07T02:52:39;4.90;99.90
44117;DHT22;29781;49.480;8.512;2024-01-07T02:55:04;5.00;99.90
44117;DHT22;29781;49.480;8.512;2024-01-07T02:57:30;5.20;99.90
44117;DHT22;29781;49.480;8.512;2024-01-07T02:59:56;5.20;99.90
44117;DHT22;29781;49.480;8.512;2024-01-07T03:02:21;5.10;99.90
44117;DHT22;29781;49.480;8.512;2024-01-07T03:04:47;5.30;99.90
44117;DHT22;29781;49.480;8.512;2024-01-07T03:07:12;5.30;99.90
44117;DHT22;29781;49.480;8.512;2024-01-07T03:09:38;5.20;99.90
44117;DHT22;29781;49.480;8.512;2024-01-07T03:12:04;5.30;99.90
44117;DHT22;29781;49.480;8.512;2024-01-07T03:14:29;5.10;99.90
44117;DHT22;29781;49.480;8.512;2024-01-07T03:16:55;5.10;99.90
44117;DHT22;29781;49.480;8.512;2024-01-07T03:19:20;4.90;99.90
44117;DHT22;29781;49.480;8.512;2024-01-07T03:21:47;4.80;99.90
44117;DHT22;29781;49.480;8.512;2024-01-07T03:24:13;5.00;99.90
44117;DHT22;29781;49.480;8.512;2024-01-07T03:26:38;5.00;99.90
44117;DHT22;29781;49.480;8.512;2024-01-07T03:29:04;5.10;99.90
44117;DHT22;29781;49.480;8.512;2024-01-07T03:31:29;5.00;99.90
44117;DHT22;29781;49.480;8.512;2024-01-07T03:33:55;5.00;99.90
44117;DHT22;29781;49.480;8.512;2024-01-07T03:36:20;5.00;99.90
44117;DHT22;29781;49.480;8.512;2024-01-07T03:38:46;4.90;99.90
44117;DHT22;29781;49.480;8.512;2024-01-07T03:41:18;4.90;99.90
44117;DHT22;29781;49.480;8.512;2024-01-07T03:43:45;5.00;99.90
44117;DHT22;29781;49.480;8.512;2024-01-07T03:46:11;4.70;99.90
44117;DHT22;29781;49.480;8.512;2024-01-07T03:48:37;4.80;99.90
44117;DHT22;29781;49.480;8.512;2024-01-07T03:51:02;4.80;99.90
44117;DHT22;29781;49.480;8.512;2024-01-07T03:53:28;4.80;99.90
44117;DHT22;29781;49.480;8.512;2024-01-07T03:55:53;4.90;99.90
44117;DHT22;29781;49.480;8.512;2024-01-07T03:58:19;4.90;99.90
44117;DHT22;29781;49.480;8.512;2024-01-07T04:00:44;4.80;99.90
44117;DHT22;29781;49.480;8.512;2024-01-07T04:03:09;4.80;99.90
44117;DHT22;29781;49.480;8.512;2024-01-07T04:05:35;4.60;99.90
44117;DHT22;29781;49.480;8.512;2024-01-07T04:08:02;4.70;99.90
44117;DHT22;29781;49.480;8.512;2024-01-07T04:10:27;4.70;99.90
44117;DHT22;29781;49.480;8.512;2024-01-07T04:12:53;4.90;99.90
44117;DHT22;29781;49.480;8.512;2024-01-07T04:15:18;4.90;99.90
44117;DHT22;29781;49.480;8.512;2024-01-07T04:17:44;4.90;99.90
44117;DHT22;29781;49.480;8.512;2024-01-07T04:20:13;4.90;99.90
44117;DHT22;29781;49.480;8.512;2024-01-07T04:22:38;5.00;99.90
44117;DHT22;29781;49.480;8.512;2024-01-07T04:25:04;4.90;99.90
44117;DHT22;29781;49.480;8.512;2024-01-07T04:27:34;4.80;99.90
44117;DHT22;29781;49.480;8.512;2024-01-07T04:30:00;4.90;99.90
44117;DHT22;29781;49.480;8.512;2024-01-07T04:32:25;5.00;99.90
44117;DHT22;29781;49.480;8.512;2024-01-07T04:34:51;5.10;99.90
44117;DHT22;29781;49.480;8.512;2024-01-07T04:37:17;5.20;99.90
44117;DHT22;29781;49.480;8.512;2024-01-07T04:39:42;5.20;99.90
44117;DHT22;29781;49.480;8.512;2024-01-07T04:42:08;4.90;99.90
44117;DHT22;29781;49.480;8.512;2024-01-07T04:44:33;5.00;99.90
44117;DHT22;29781;49.480;8.512;2024-01-07T04:46:59;4.90;99.90
44117;DHT22;29781;49.480;8.512;2024-01-07T04:49:24;5.00;99.90
44117;DHT22;29781;49.480;8.512;2024-01-07T04:51:50;4.90;99.90
44117;DHT22;29781;49.480;8.512;2024-01-07T04:54:15;4.80;99.90
44117;DHT22;29781;49.480;8.512;2024-01-07T04:56:40;4.70;99.90
44117;DHT22;29781;49.480;8.512;2024-01-07T04:59:06;4.80;99.90
44117;DHT22;29781;49.480;8.512;2024-01-07T05:01:35;4.80;99.90
44117;DHT22;29781;49.480;8.512;2024-01-07T05:04:03;4.80;99.90
44117;DHT22;29781;49.480;8.512;2024-01-07T05:06:29;4.70;99.90
44117;DHT22;29781;49.480;8.512;2024-01-07T05:08:54;4.60;99.90
44117;DHT22;29781;49.480;8.512;2024-01-07T05:11:20;4.60;99.90
44117;DHT22;29781;49.480;8.512;2024-01-07T05:13:45;4.60;99.90
44117;DHT22;29781;49.480;8.512;2024-01-07T05:16:19;4.80;99.90
44117;DHT22;29781;49.480;8.512;2024-01-07T05:18:44;4.70;99.90
44117;DHT22;29781;49.480;8.512;2024-01-07T05:21:22;4.70;99.90
44117;DHT22;29781;49.480;8.512;2024-01-07T05:23:48;4.70;99.90
44117;DHT22;29781;49.480;8.512;2024-01-07T05:26:13;4.60;99.90
44117;DHT22;29781;49.480;8.512;2024-01-07T05:28:39;4.70;99.90
44117;DHT22;29781;49.480;8.512;2024-01-07T05:31:04;4.80;99.90
44117;DHT22;29781;49.480;8.512;2024-01-07T05:33:30;4.70;99.90
44117;DHT22;29781;49.480;8.512;2024-01-07T05:35:56;4.70;99.90
44117;DHT22;29781;49.480;8.512;2024-01-07T05:38:21;4.70;99.90
44117;DHT22;29781;49.480;8.512;2024-01-07T05:40:47;4.60;99.90
44117;DHT22;29781;49.480;8.512;2024-01-07T05:43:12;4.60;99.90
44117;DHT22;29781;49.480;8.512;2024-01-07T05:45:38;4.60;99.90
44117;DHT22;29781;49.480;8.512;2024-01-07T05:48:03;4.60;99.90
44117;DHT22;29781;49.480;8.512;2024-01-07T05:50:29;4.70;99.90
44117;DHT22;29781;49.480;8.512;2024-01-07T05:52:54;4.70;99.90
44117;DHT22;29781;49.480;8.512;2024-01-07T05:55:20;4.60;99.90
44117;DHT22;29781;49.480;8.512;2024-01-07T05:57:45;4.60;99.90
44117;DHT22;29781;49.480;8.512;2024-01-07T06:00:11;4.60;99.90
44117;DHT22;29781;49.480;8.512;2024-01-07T06:02:38;4.70;99.90
44117;DHT22;29781;49.480;8.512;2024-01-07T06:05:04;4.70;99.90
44117;DHT22;29781;49.480;8.512;2024-01-07T06:07:29;4.70;99.90
44117;DHT22;29781;49.480;8.512;2024-01-07T06:09:55;4.60;99.90
44117;DHT22;29781;49.480;8.512;2024-01-07T06:12:20;4.60;99.90
44117;DHT22;29781;49.480;8.512;2024-01-07T06:14:46;4.60;99.90
44117;DHT22;29781;49.480;8.512;2024-01-07T06:17:11;4.50;99.90
44117;DHT22;29781;49.480;8.512;2024-01-07T06:19:37;4.60;99.90
44117;DHT22;29781;49.480;8.512;2024-01-07T06:22:02;4.70;99.90
44117;DHT22;29781;49.480;8.512;2024-01-07T06:24:28;4.80;99.90
44117;DHT22;29781;49.480;8.512;2024-01-07T06:26:54;4.80;99.90
44117;DHT22;29781;49.480;8.512;2024-01-07T06:29:19;4.70;99.90
44117;DHT22;29781;49.480;8.512;2024-01-07T06:31:45;4.70;99.90
44117;DHT22;29781;49.480;8.512;2024-01-07T06:34:11;4.70;99.90
44117;DHT22;29781;49.480;8.512;2024-01-07T06:36:39;4.60;99.90
44117;DHT22;29781;49.480;8.512;2024-01-07T06:39:05;4.80;99.90
44117;DHT22;29781;49.480;8.512;2024-01-07T06:41:31;4.70;99.90
44117;DHT22;29781;49.480;8.512;2024-01-07T06:43:56;4.50;99.90
44117;DHT22;29781;49.480;8.512;2024-01-07T06:46:22;4.60;99.90
44117;DHT22;29781;49.480;8.512;2024-01-07T06:48:48;4.70;99.90
44117;DHT22;29781;49.480;8.512;2024-01-07T06:51:14;4.70;99.90
44117;DHT22;29781;49.480;8.512;2024-01-07T06:53:40;4.70;99.90
44117;DHT22;29781;49.480;8.512;2024-01-07T06:56:06;4.80;99.90
44117;DHT22;29781;49.480;8.512;2024-01-07T06:58:31;4.70;99.90
44117;DHT22;29781;49.480;8.512;2024-01-07T07:00:57;4.60;99.90
44117;DHT22;29781;49.480;8.512;2024-01-07T07:03:23;4.50;99.90
44117;DHT22;29781;49.480;8.512;2024-01-07T07:05:48;4.40;99.90
44117;DHT22;29781;49.480;8.512;2024-01-07T07:08:14;4.40;99.90
44117;DHT22;29781;49.480;8.512;2024-01-07T07:10:39;4.50;99.90
44117;DHT22;29781;49.480;8.512;2024-01-07T07:13:05;4.50;99.90
44117;DHT22;29781;49.480;8.512;2024-01-07T07:15:31;4.50;99.90
44117;DHT22;29781;49.480;8.512;2024-01-07T07:17:57;4.50;99.90
44117;DHT22;29781;49.480;8.512;2024-01-07T07:20:23;4.70;99.90
44117;DHT22;29781;49.480;8.512;2024-01-07T07:22:48;4.60;99.90
44117;DHT22;29781;49.480;8.512;2024-01-07T07:25:14;4.60;99.90
44117;DHT22;29781;49.480;8.512;2024-01-07T07:27:39;4.60;99.90
44117;DHT22;29781;49.480;8.512;2024-01-07T07:30:05;4.50;99.90
44117;DHT22;29781;49.480;8.512;2024-01-07T07:32:31;4.40;99.90
44117;DHT22;29781;49.480;8.512;2024-01-07T07:34:57;4.50;99.90
44117;DHT22;29781;49.480;8.512;2024-01-07T07:37:23;4.50;99.90
44117;DHT22;29781;49.480;8.512;2024-01-07T07:39:48;4.50;99.90
44117;DHT22;29781;49.480;8.512;2024-01-07T07:42:15;4.50;99.90
44117;DHT22;29781;49.480;8.512;2024-01-07T07:44:41;4.60;99.90
44117;DHT22;29781;49.480;8.512;2024-01-07T07:47:06;4.50;99.90
44117;DHT22;29781;49.480;8.512;2024-01-07T07:49:33;4.60;99.90
44117;DHT22;29781;49.480;8.512;2024-01-07T07:51:59;4.60;99.90
44117;DHT22;29781;49.480;8.512;2024-01-07T07:54:25;4.60;99.90
44117;DHT22;29781;49.480;8.512;2024-01-07T07:56:51;4.70;99.90
44117;DHT22;29781;49.480;8.512;2024-01-07T07:59:16;4.50;99.90
44117;DHT22;29781;49.480;8.512;2024-01-07T08:01:42;4.50;99.90
44117;DHT22;29781;49.480;8.512;2024-01-07T08:04:07;4.70;99.90
44117;DHT22;29781;49.480;8.512;2024-01-07T08:06:35;4.80;99.90
44117;DHT22;29781;49.480;8.512;2024-01-07T08:09:00;4.80;99.90
44117;DHT22;29781;49.480;8.512;2024-01-07T08:11:26;4.80;99.90
44117;DHT22;29781;49.480;8.512;2024-01-07T08:13:51;4.80;99.90
44117;DHT22;29781;49.480;8.512;2024-01-07T08:16:17;4.70;99.90
44117;DHT22;29781;49.480;8.512;2024-01-07T08:18:42;4.70;99.90
44117;DHT22;29781;49.480;8.512;2024-01-07T08:21:07;4.60;99.90
44117;DHT22;29781;49.480;8.512;2024-01-07T08:23:33;4.50;99.90
44117;DHT22;29781;49.480;8.512;2024-01-07T08:25:59;4.50;99.90
44117;DHT22;29781;49.480;8.512;2024-01-07T08:28:24;4.50;99.90
44117;DHT22;29781;49.480;8.512;2024-01-07T08:30:50;4.40;99.90
44117;DHT22;29781;49.480;8.512;2024-01-07T08:33:17;4.40;99.90
44117;DHT22;29781;49.480;8.512;2024-01-07T08:35:43;4.50;99.90
44117;DHT22;29781;49.480;8.512;2024-01-07T08:38:08;4.50;99.90
44117;DHT22;29781;49.480;8.512;2024-01-07T08:40:34;4.60;99.90
44117;DHT22;29781;49.480;8.512;2024-01-07T08:42:59;4.60;99.90
44117;DHT22;29781;49.480;8.512;2024-01-07T08:45:25;4.60;99.90
44117;DHT22;29781;49.480;8.512;2024-01-07T08:47:50;4.40;99.90
44117;DHT22;29781;49.480;8.512;2024-01-07T08:50:16;4.40;99.90
44117;DHT22;29781;49.480;8.512;2024-01-07T08:52:41;4.40;99.90
44117;DHT22;29781;49.480;8.512;2024-01-07T08:55:07;4.30;99.90
44117;DHT22;29781;49.480;8.512;2024-01-07T08:57:35;4.40;99.90
44117;DHT22;29781;49.480;8.512;2024-01-07T09:00:00;4.30;99.90
44117;DHT22;29781;49.480;8.512;2024-01-07T09:02:26;4.30;99.90
44117;DHT22;29781;49.480;8.512;2024-01-07T09:04:51;4.20;99.90
44117;DHT22;29781;49.480;8.512;2024-01-07T09:07:17;4.30;99.90
44117;DHT22;29781;49.480;8.512;2024-01-07T09:09:44;4.20;99.90
44117;DHT22;29781;49.480;8.512;2024-01-07T09:12:10;4.20;99.90
44117;DHT22;29781;49.480;8.512;2024-01-07T09:14:37;4.20;99.90
44117;DHT22;29781;49.480;8.512;2024-01-07T09:17:03;4.10;99.90
44117;DHT22;29781;49.480;8.512;2024-01-07T09:19:28;4.30;99.90
44117;DHT22;29781;49.480;8.512;2024-01-07T09:21:54;4.20;99.90
44117;DHT22;29781;49.480;8.512;2024-01-07T09:24:19;4.30;99.90
44117;DHT22;29781;49.480;8.512;2024-01-07T09:26:45;4.30;99.90
44117;DHT22;29781;49.480;8.512;2024-01-07T09:29:11;4.40;99.90
44117;DHT22;29781;49.480;8.512;2024-01-07T09:31:37;4.20;99.90
44117;DHT22;29781;49.480;8.512;2024-01-07T09:34:02;4.20;99.90
44117;DHT22;29781;49.480;8.512;2024-01-07T09:36:29;4.20;99.90
44117;DHT22;29781;49.480;8.512;2024-01-07T09:38:55;4.20;99.90
44117;DHT22;29781;49.480;8.512;2024-01-07T09:41:20;4.10;99.90
44117;DHT22;29781;49.480;8.512;2024-01-07T09:43:46;4.10;99.90
44117;DHT22;29781;49.480;8.512;2024-01-07T09:46:12;4.20;99.90
44117;DHT22;29781;49.480;8.512;2024-01-07T09:48:38;4.20;99.90
44117;DHT22;29781;49.480;8.512;2024-01-07T09:51:04;4.40;99.90
44117;DHT22;29781;49.480;8.512;2024-01-07T09:53:31;4.20;99.90
44117;DHT22;29781;49.480;8.512;2024-01-07T09:56:12;4.20;99.90
44117;DHT22;29781;49.480;8.512;2024-01-07T09:58:42;4.00;99.90
44117;DHT22;29781;49.480;8.512;2024-01-07T10:01:08;3.90;99.90
44117;DHT22;29781;49.480;8.512;2024-01-07T10:03:34;4.00;99.90
44117;DHT22;29781;49.480;8.512;2024-01-07T10:05:59;4.10;99.90
44117;DHT22;29781;49.480;8.512;2024-01-07T10:08:25;4.10;99.90
44117;DHT22;29781;49.480;8.512;2024-01-07T10:10:50;4.10;99.90
44117;DHT22;29781;49.480;8.512;2024-01-07T10:13:16;4.10;99.90
44117;DHT22;29781;49.480;8.512;2024-01-07T10:15:41;4.00;99.90
44117;DHT22;29781;49.480;8.512;2024-01-07T10:18:07;4.00;99.90
44117;DHT22;29781;49.480;8.512;2024-01-07T10:20:33;4.00;99.90
44117;DHT22;29781;49.480;8.512;2024-01-07T10:23:00;4.00;99.90
44117;DHT22;29781;49.480;8.512;2024-01-07T10:25:26;3.90;99.90
44117;DHT22;29781;49.480;8.512;2024-01-07T10:27:51;3.90;99.90
44117;DHT22;29781;49.480;8.512;2024-01-07T10:30:17;3.90;99.90
44117;DHT22;29781;49.480;8.512;2024-01-07T10:32:43;4.00;99.90
44117;DHT22;29781;49.480;8.512;2024-01-07T10:35:12;3.90;99.90
44117;DHT22;29781;49.480;8.512;2024-01-07T10:37:39;4.00;99.90
44117;DHT22;29781;49.480;8.512;2024-01-07T10:40:06;4.10;99.90
44117;DHT22;29781;49.480;8.512;2024-01-07T10:42:33;4.20;99.90
44117;DHT22;29781;49.480;8.512;2024-01-07T10:45:02;4.10;99.90
44117;DHT22;29781;49.480;8.512;2024-01-07T10:47:30;4.00;99.90
44117;DHT22;29781;49.480;8.512;2024-01-07T10:49:58;4.00;99.90
44117;DHT22;29781;49.480;8.512;2024-01-07T10:52:26;4.00;99.90
44117;DHT22;29781;49.480;8.512;2024-01-07T10:54:53;4.20;99.90
44117;DHT22;29781;49.480;8.512;2024-01-07T10:57:24;4.10;99.90
44117;DHT22;29781;49.480;8.512;2024-01-07T10:59:53;4.20;99.90
44117;DHT22;29781;49.480;8.512;2024-01-07T11:02:20;4.10;99.90
44117;DHT22;29781;49.480;8.512;2024-01-07T11:05:05;4.10;99.90
44117;DHT22;29781;49.480;8.512;2024-01-07T11:07:35;4.10;99.90
44117;DHT22;29781;49.480;8.512;2024-01-07T11:10:14;4.10;99.90
44117;DHT22;29781;49.480;8.512;2024-01-07T11:12:43;4.20;99.90
44117;DHT22;29781;49.480;8.512;2024-01-07T11:15:08;4.30;99.90
44117;DHT22;29781;49.480;8.512;2024-01-07T11:20:05;4.40;99.90
44117;DHT22;29781;49.480;8.512;2024-01-07T11:22:31;4.20;99.90
44117;DHT22;29781;49.480;8.512;2024-01-07T11:24:58;4.10;99.90
44117;DHT22;29781;49.480;8.512;2024-01-07T11:27:29;4.30;99.90
44117;DHT22;29781;49.480;8.512;2024-01-07T11:29:57;4.10;99.90
44117;DHT22;29781;49.480;8.512;2024-01-07T11:32:24;3.90;99.90
44117;DHT22;29781;49.480;8.512;2024-01-07T11:34:53;4.00;99.90
44117;DHT22;29781;49.480;8.512;2024-01-07T11:37:20;3.80;99.90
44117;DHT22;29781;49.480;8.512;2024-01-07T11:39:47;3.80;99.90
44117;DHT22;29781;49.480;8.512;2024-01-07T11:42:13;3.70;99.90
44117;DHT22;29781;49.480;8.512;2024-01-07T11:44:46;3.70;99.90
44117;DHT22;29781;49.480;8.512;2024-01-07T11:47:12;3.80;99.90
44117;DHT22;29781;49.480;8.512;2024-01-07T11:49:39;3.90;99.90
44117;DHT22;29781;49.480;8.512;2024-01-07T11:52:05;3.80;99.90
44117;DHT22;29781;49.480;8.512;2024-01-07T11:54:31;3.80;99.90
44117;DHT22;29781;49.480;8.512;2024-01-07T11:56:57;3.80;99.90
44117;DHT22;29781;49.480;8.512;2024-01-07T11:59:23;3.80;99.90
44117;DHT22;29781;49.480;8.512;2024-01-07T12:01:49;3.80;99.90
44117;DHT22;29781;49.480;8.512;2024-01-07T12:04:14;3.70;99.90
44117;DHT22;29781;49.480;8.512;2024-01-07T12:06:40;3.60;99.90
44117;DHT22;29781;49.480;8.512;2024-01-07T12:09:06;3.60;99.90
44117;DHT22;29781;49.480;8.512;2024-01-07T12:11:32;3.50;99.90
44117;DHT22;29781;49.480;8.512;2024-01-07T12:13:58;3.60;99.90
44117;DHT22;29781;49.480;8.512;2024-01-07T12:16:24;3.70;99.90
44117;DHT22;29781;49.480;8.512;2024-01-07T12:18:50;3.50;99.90
44117;DHT22;29781;49.480;8.512;2024-01-07T12:21:19;3.40;99.90
44117;DHT22;29781;49.480;8.512;2024-01-07T12:23:48;3.50;99.90
44117;DHT22;29781;49.480;8.512;2024-01-07T12:26:16;3.30;99.90
44117;DHT22;29781;49.480;8.512;2024-01-07T12:28:42;3.30;99.90
44117;DHT22;29781;49.480;8.512;2024-01-07T12:31:08;3.40;99.90
44117;DHT22;29781;49.480;8.512;2024-01-07T12:33:36;3.40;99.90
44117;DHT22;29781;49.480;8.512;2024-01-07T12:36:03;3.30;99.90
44117;DHT22;29781;49.480;8.512;2024-01-07T12:38:28;3.30;99.90
44117;DHT22;29781;49.480;8.512;2024-01-07T12:40:54;3.40;99.90
44117;DHT22;29781;49.480;8.512;2024-01-07T12:43:20;3.40;99.90
44117;DHT22;29781;49.480;8.512;2024-01-07T12:45:47;3.40;99.90
44117;DHT22;29781;49.480;8.512;2024-01-07T12:48:13;3.30;99.90
44117;DHT22;29781;49.480;8.512;2024-01-07T12:50:38;3.20;99.90
44117;DHT22;29781;49.480;8.512;2024-01-07T12:53:04;3.20;99.90
44117;DHT22;29781;49.480;8.512;2024-01-07T12:55:30;3.10;99.90
44117;DHT22;29781;49.480;8.512;2024-01-07T12:57:56;3.10;99.90
44117;DHT22;29781;49.480;8.512;2024-01-07T13:00:22;3.10;99.90
44117;DHT22;29781;49.480;8.512;2024-01-07T13:02:48;3.10;99.90
44117;DHT22;29781;49.480;8.512;2024-01-07T13:05:14;3.10;99.90
44117;DHT22;29781;49.480;8.512;2024-01-07T13:07:39;3.10;99.90
44117;DHT22;29781;49.480;8.512;2024-01-07T13:10:05;3.10;99.90
44117;DHT22;29781;49.480;8.512;2024-01-07T13:12:31;2.90;99.90
44117;DHT22;29781;49.480;8.512;2024-01-07T13:14:57;2.90;99.90
44117;DHT22;29781;49.480;8.512;2024-01-07T13:17:22;2.80;99.90
44117;DHT22;29781;49.480;8.512;2024-01-07T13:19:48;2.90;99.90
44117;DHT22;29781;49.480;8.512;2024-01-07T13:22:13;2.90;99.90
44117;DHT22;29781;49.480;8.512;2024-01-07T13:24:40;2.80;99.90
44117;DHT22;29781;49.480;8.512;2024-01-07T13:27:06;2.80;99.90
44117;DHT22;29781;49.480;8.512;2024-01-07T13:29:33;2.70;99.90
44117;DHT22;29781;49.480;8.512;2024-01-07T13:31:59;2.70;99.90
44117;DHT22;29781;49.480;8.512;2024-01-07T13:34:25;2.60;99.90
44117;DHT22;29781;49.480;8.512;2024-01-07T13:36:50;2.60;99.90
44117;DHT22;29781;49.480;8.512;2024-01-07T13:39:17;2.70;99.90
44117;DHT22;29781;49.480;8.512;2024-01-07T13:41:43;2.70;99.90
44117;DHT22;29781;49.480;8.512;2024-01-07T13:44:09;2.60;99.90
44117;DHT22;29781;49.480;8.512;2024-01-07T13:46:43;2.60;99.90
44117;DHT22;29781;49.480;8.512;2024-01-07T13:49:09;2.60;99.90
44117;DHT22;29781;49.480;8.512;2024-01-07T13:51:35;2.60;99.90
44117;DHT22;29781;49.480;8.512;2024-01-07T13:54:02;2.80;99.90
44117;DHT22;29781;49.480;8.512;2024-01-07T13:56:29;2.90;99.90
44117;DHT22;29781;49.480;8.512;2024-01-07T13:58:54;2.70;99.90
44117;DHT22;29781;49.480;8.512;2024-01-07T14:01:21;2.70;99.90
44117;DHT22;29781;49.480;8.512;2024-01-07T14:03:46;2.60;99.90
44117;DHT22;29781;49.480;8.512;2024-01-07T14:06:12;2.40;99.90
44117;DHT22;29781;49.480;8.512;2024-01-07T14:08:38;2.30;99.90
44117;DHT22;29781;49.480;8.512;2024-01-07T14:11:04;2.40;99.90
44117;DHT22;29781;49.480;8.512;2024-01-07T14:13:32;2.50;99.90
44117;DHT22;29781;49.480;8.512;2024-01-07T14:15:57;2.50;99.90
44117;DHT22;29781;49.480;8.512;2024-01-07T14:18:23;2.40;99.90
44117;DHT22;29781;49.480;8.512;2024-01-07T14:20:49;2.40;99.90
44117;DHT22;29781;49.480;8.512;2024-01-07T14:23:14;2.50;99.90
44117;DHT22;29781;49.480;8.512;2024-01-07T14:25:39;2.40;99.90
44117;DHT22;29781;49.480;8.512;2024-01-07T14:28:06;2.40;99.90
44117;DHT22;29781;49.480;8.512;2024-01-07T14:30:32;2.40;99.90
44117;DHT22;29781;49.480;8.512;2024-01-07T14:32:58;2.40;99.90
44117;DHT22;29781;49.480;8.512;2024-01-07T14:35:24;2.30;99.90
44117;DHT22;29781;49.480;8.512;2024-01-07T14:37:51;2.40;99.90
44117;DHT22;29781;49.480;8.512;2024-01-07T14:40:18;2.40;99.90
44117;DHT22;29781;49.480;8.512;2024-01-07T14:42:43;2.40;99.90
44117;DHT22;29781;49.480;8.512;2024-01-07T14:45:09;2.30;99.90
44117;DHT22;29781;49.480;8.512;2024-01-07T14:47:34;2.30;99.90
44117;DHT22;29781;49.480;8.512;2024-01-07T14:50:00;2.30;99.90
44117;DHT22;29781;49.480;8.512;2024-01-07T14:52:26;2.40;99.90
44117;DHT22;29781;49.480;8.512;2024-01-07T14:54:52;2.20;99.90
44117;DHT22;29781;49.480;8.512;2024-01-07T14:57:18;2.20;99.90
44117;DHT22;29781;49.480;8.512;2024-01-07T14:59:44;2.20;99.90
44117;DHT22;29781;49.480;8.512;2024-01-07T15:02:09;2.20;99.90
44117;DHT22;29781;49.480;8.512;2024-01-07T15:04:35;2.10;99.90
44117;DHT22;29781;49.480;8.512;2024-01-07T15:07:00;2.20;99.90
44117;DHT22;29781;49.480;8.512;2024-01-07T15:09:26;2.20;99.90
44117;DHT22;29781;49.480;8.512;2024-01-07T15:11:52;2.20;99.90
44117;DHT22;29781;49.480;8.512;2024-01-07T15:14:18;2.20;99.90
44117;DHT22;29781;49.480;8.512;2024-01-07T15:16:45;2.10;99.90
44117;DHT22;29781;49.480;8.512;2024-01-07T15:19:17;2.10;99.90
44117;DHT22;29781;49.480;8.512;2024-01-07T15:21:42;2.00;99.90
44117;DHT22;29781;49.480;8.512;2024-01-07T15:24:08;2.00;99.90
44117;DHT22;29781;49.480;8.512;2024-01-07T15:26:34;2.00;99.90
44117;DHT22;29781;49.480;8.512;2024-01-07T15:29:01;2.00;99.90
44117;DHT22;29781;49.480;8.512;2024-01-07T15:31:27;2.00;99.90
44117;DHT22;29781;49.480;8.512;2024-01-07T15:33:53;1.90;99.90
44117;DHT22;29781;49.480;8.512;2024-01-07T15:36:18;1.80;99.90
44117;DHT22;29781;49.480;8.512;2024-01-07T15:38:44;1.70;99.90
44117;DHT22;29781;49.480;8.512;2024-01-07T15:41:09;1.60;99.90